Time;durP1;ratioP1;P1;durP2;ratioP2;P2;SDS_P1;SDS_P2;PMS_P1;PMS_P2;Temp;Humidity;BMP_temperature;BMP_pressure;BME280_temperature;BME280_humidity;BME280_pressure;Samples;Min_cycle;Max_cycle;Signal;HPM_P1;HPM_P2
2022/02/01 00:00:21;;;;;;;4.05;0.90;;;3.80;93.90;;;;;;2091119;28;20088;-90
2022/02/01 00:03:05;;;;;;;3.58;0.70;;;3.80;94.00;;;;;;2091695;28;20140;-90
2022/02/01 00:03:49;;;;;;;5.93;1.13;;;3.80;94.00;;;;;;2090791;28;20139;-89
2022/02/01 00:05:07;;;;;;;4.97;1.13;;;3.80;94.00;;;;;;2090459;28;20064;-90
2022/02/01 00:06:15;;;;;;;4.88;0.77;;;3.80;94.00;;;;;;2078600;28;20029;-90
2022/02/01 00:07:34;;;;;;;5.10;1.10;;;3.80;94.00;;;;;;2101822;28;20043;-89
2022/02/01 00:10:10;;;;;;;3.90;1.17;;;3.80;94.10;;;;;;2100565;28;20029;-90
2022/02/01 00:11:15;;;;;;;;;;;3.80;94.10;;;;;;2096162;28;20033;-90
2022/02/01 00:13:36;;;;;;;4.22;0.73;;;3.70;94.10;;;;;;2104147;28;20033;-89
2022/02/01 00:16:11;;;;;;;4.70;0.90;;;3.70;94.10;;;;;;2097624;28;20041;-89
2022/02/01 00:17:29;;;;;;;5.18;0.90;;;3.70;94.10;;;;;;2076427;28;20042;-90
2022/02/01 00:19:47;;;;;;;5.43;0.80;;;3.70;94.10;;;;;;2099434;28;20029;-89
2022/02/01 00:34:15;;;;;;;6.22;0.85;;;3.60;94.20;;;;;;2098497;28;20071;-90
2022/02/01 00:36:46;;;;;;;5.65;0.98;;;3.50;94.20;;;;;;2092707;28;20031;-90
2022/02/01 00:37:59;;;;;;;4.47;0.80;;;3.50;94.20;;;;;;2089709;28;20033;-90
2022/02/01 00:39:07;;;;;;;5.57;1.38;;;3.60;94.20;;;;;;2088725;28;20116;-90
2022/02/01 00:40:12;;;;;;;4.32;0.70;;;3.60;94.50;;;;;;2082404;28;20047;-90
2022/02/01 00:41:13;;;;;;;6.93;1.00;;;3.60;94.30;;;;;;2103576;28;20182;-90
2022/02/01 00:42:15;;;;;;;4.18;0.95;;;3.60;94.20;;;;;;2097529;28;20036;-90
2022/02/01 00:43:15;;;;;;;5.70;1.00;;;3.60;94.20;;;;;;2098739;28;20117;-90
2022/02/01 00:44:17;;;;;;;6.28;1.10;;;3.50;94.20;;;;;;2098534;28;20044;-90
2022/02/01 00:45:18;;;;;;;5.07;0.77;;;3.60;94.30;;;;;;2092754;28;20086;-90
2022/02/01 00:46:18;;;;;;;5.32;0.90;;;3.60;94.60;;;;;;2089778;28;20091;-89
2022/02/01 00:47:19;;;;;;;4.28;0.80;;;3.60;94.30;;;;;;2084010;28;20063;-90
2022/02/01 00:48:20;;;;;;;7.05;0.80;;;3.60;94.20;;;;;;2098287;28;20545;-90
2022/02/01 00:49:20;;;;;;;4.35;0.80;;;3.60;94.20;;;;;;2081987;28;20064;-90
2022/02/01 00:50:21;;;;;;;5.97;1.42;;;3.60;94.20;;;;;;2073706;28;20128;-90
2022/02/01 00:51:22;;;;;;;4.20;0.90;;;3.60;94.20;;;;;;2089771;28;20095;-90
2022/02/01 00:52:25;;;;;;;4.97;0.65;;;3.60;94.20;;;;;;2090113;28;20044;-90
2022/02/01 00:53:28;;;;;;;4.72;1.00;;;3.70;94.20;;;;;;2106901;28;20063;-90
2022/02/01 00:54:28;;;;;;;5.55;1.20;;;3.60;94.20;;;;;;2105017;28;20028;-90
2022/02/01 00:55:29;;;;;;;4.75;0.90;;;3.70;94.20;;;;;;2090073;28;20351;-90
2022/02/01 00:56:30;;;;;;;4.38;0.90;;;3.70;94.20;;;;;;2089814;28;20127;-89
2022/02/01 00:57:31;;;;;;;5.47;0.90;;;3.70;94.20;;;;;;2099191;28;20514;-90
2022/02/01 00:58:31;;;;;;;4.38;0.90;;;3.70;94.20;;;;;;2089616;28;20041;-90
2022/02/01 00:59:32;;;;;;;4.22;0.88;;;3.70;94.20;;;;;;2090141;28;20509;-90
2022/02/01 01:00:33;;;;;;;6.43;1.00;;;3.70;94.20;;;;;;2097566;28;20037;-90
2022/02/01 01:01:33;;;;;;;5.20;0.80;;;3.70;94.20;;;;;;2098347;28;20036;-90
2022/02/01 01:02:34;;;;;;;6.03;1.27;;;3.70;94.20;;;;;;2106829;28;20039;-90
2022/02/01 01:03:35;;;;;;;4.53;1.05;;;3.70;94.50;;;;;;2090070;28;20487;-90
2022/02/01 01:04:36;;;;;;;4.30;0.80;;;3.70;94.20;;;;;;2089754;28;20566;-90
2022/02/01 01:05:37;;;;;;;3.40;0.70;;;3.70;94.20;;;;;;2090081;28;20047;-90
2022/02/01 01:06:37;;;;;;;7.38;1.05;;;3.70;94.20;;;;;;2089588;28;20120;-90
2022/02/01 01:07:38;;;;;;;4.43;0.82;;;3.70;94.20;;;;;;2089862;28;20040;-89
2022/02/01 01:08:40;;;;;;;3.58;0.77;;;3.80;94.20;;;;;;2081581;28;20143;-90
2022/02/01 01:09:41;;;;;;;3.47;0.70;;;3.80;94.20;;;;;;2098373;28;20048;-90
2022/02/01 01:10:42;;;;;;;3.60;1.05;;;3.70;94.20;;;;;;2098135;28;20098;-90
2022/02/01 01:11:43;;;;;;;4.40;0.68;;;3.80;94.20;;;;;;2081716;28;20036;-90
2022/02/01 01:12:54;;;;;;;5.78;0.85;;;3.80;94.20;;;;;;2073840;28;20046;-90
2022/02/01 01:15:20;;;;;;;5.60;0.70;;;3.80;94.20;;;;;;2083225;28;20427;-90
2022/02/01 01:19:09;;;;;;;2.58;0.60;;;3.80;94.10;;;;;;2095576;28;20079;-89
2022/02/01 01:44:23;;;;;;;3.28;0.70;;;3.80;94.00;;;;;;2098535;28;20478;-90
2022/02/01 01:45:33;;;;;;;4.97;0.80;;;3.80;94.30;;;;;;2081393;28;20072;-90
2022/02/01 01:54:10;;;;;;;4.80;0.80;;;3.80;94.00;;;;;;2092208;28;20037;-91
2022/02/01 01:55:13;;;;;;;4.60;0.70;;;3.80;94.00;;;;;;2083187;28;20030;-89
2022/02/01 01:56:14;;;;;;;7.28;0.93;;;3.80;94.00;;;;;;2089652;28;20033;-90
2022/02/01 01:57:15;;;;;;;4.07;0.82;;;3.80;94.00;;;;;;2098348;28;20032;-90
2022/02/01 01:58:17;;;;;;;5.53;0.90;;;3.80;94.00;;;;;;2089349;28;20052;-90
2022/02/01 01:59:17;;;;;;;4.45;0.93;;;3.80;94.00;;;;;;2089552;28;20037;-90
2022/02/01 02:00:35;;;;;;;4.93;1.00;;;3.80;94.00;;;;;;2081415;28;20041;-90
2022/02/01 02:01:38;;;;;;;4.43;0.80;;;3.80;94.10;;;;;;2077169;28;20033;-90
2022/02/01 02:02:38;;;;;;;6.63;1.00;;;3.80;94.10;;;;;;2089520;28;20037;-90
2022/02/01 02:03:44;;;;;;;7.47;1.00;;;3.80;94.10;;;;;;2089777;28;20025;-90
2022/02/01 02:04:45;;;;;;;6.05;0.88;;;3.80;94.10;;;;;;2086244;28;20068;-91
2022/02/01 02:05:46;;;;;;;5.50;1.10;;;3.80;94.10;;;;;;2081409;28;20033;-90
2022/02/01 02:06:46;;;;;;;5.78;0.95;;;3.80;94.10;;;;;;2089608;28;20045;-90
2022/02/01 02:07:49;;;;;;;5.72;0.80;;;3.90;94.10;;;;;;2089484;28;20037;-90
2022/02/01 02:08:53;;;;;;;4.00;0.70;;;3.90;94.10;;;;;;2089488;28;20135;-90
2022/02/01 02:09:53;;;;;;;5.78;0.85;;;3.90;94.10;;;;;;2086718;28;20064;-90
2022/02/01 02:11:35;;;;;;;2.60;0.73;;;3.80;94.10;;;;;;2089668;28;20060;-89
2022/02/01 02:12:47;;;;;;;2.13;0.73;;;3.90;94.10;;;;;;2086386;28;20412;-90
2022/02/01 02:15:09;;;;;;;4.18;0.70;;;3.90;94.10;;;;;;2073292;28;20133;-90
2022/02/01 02:16:10;;;;;;;2.90;0.80;;;3.90;94.10;;;;;;2084088;28;20076;-90
2022/02/01 02:17:10;;;;;;;2.90;0.82;;;3.90;94.10;;;;;;2089328;28;20029;-90
2022/02/01 02:18:11;;;;;;;6.15;0.90;;;3.90;94.10;;;;;;2073092;28;20046;-89
2022/02/01 02:19:12;;;;;;;4.95;0.60;;;3.90;94.10;;;;;;2072181;28;20140;-89
2022/02/01 02:20:12;;;;;;;2.88;0.63;;;3.90;94.10;;;;;;2089896;28;20072;-90
2022/02/01 02:21:13;;;;;;;3.42;0.75;;;3.90;94.10;;;;;;2087708;28;20517;-90
2022/02/01 02:22:14;;;;;;;6.30;1.25;;;3.90;94.10;;;;;;2071732;28;20042;-90
2022/02/01 02:23:15;;;;;;;4.22;0.70;;;3.90;94.10;;;;;;2089481;28;20033;-90
2022/02/01 02:24:17;;;;;;;3.88;0.80;;;4.00;94.10;;;;;;2097606;28;20581;-90
2022/02/01 02:25:17;;;;;;;4.57;0.43;;;3.90;94.10;;;;;;2073030;28;20094;-90
2022/02/01 02:26:18;;;;;;;3.55;0.70;;;3.90;94.10;;;;;;2075018;28;20038;-90
2022/02/01 02:27:19;;;;;;;4.78;0.82;;;3.90;94.10;;;;;;2080391;28;20060;-90
2022/02/01 02:28:21;;;;;;;7.60;1.00;;;4.00;94.10;;;;;;2073217;28;20500;-90
2022/02/01 02:29:22;;;;;;;4.10;0.65;;;3.90;94.10;;;;;;2074201;28;20030;-90
2022/02/01 02:30:22;;;;;;;5.93;1.00;;;4.00;94.10;;;;;;2072091;28;20061;-90
2022/02/01 02:31:23;;;;;;;4.18;0.60;;;3.90;94.10;;;;;;2080963;28;20065;-90
2022/02/01 02:32:25;;;;;;;4.95;0.70;;;4.00;94.10;;;;;;2080854;28;20065;-90
2022/02/01 02:33:26;;;;;;;4.72;0.75;;;4.00;94.10;;;;;;2077542;28;20041;-90
2022/02/01 02:34:26;;;;;;;4.40;1.02;;;4.00;94.10;;;;;;2072190;28;20096;-90
2022/02/01 02:35:32;;;;;;;4.43;0.80;;;4.00;94.10;;;;;;2081306;28;20063;-90
2022/02/01 02:36:36;;;;;;;3.90;0.70;;;4.00;94.00;;;;;;2089895;28;20449;-89
2022/02/01 02:37:37;;;;;;;5.53;0.73;;;4.00;94.00;;;;;;2089045;28;20067;-90
2022/02/01 02:38:48;;;;;;;3.83;0.68;;;4.00;94.00;;;;;;2086816;28;20045;-90
2022/02/01 02:40:04;;;;;;;6.35;0.80;;;4.00;94.00;;;;;;2081094;28;20068;-90
2022/02/01 02:42:14;;;;;;;3.47;0.90;;;4.00;94.00;;;;;;2088464;28;20027;-89
2022/02/01 02:45:59;;;;;;;3.45;0.60;;;4.00;94.00;;;;;;2092324;28;20040;-90
2022/02/01 02:47:00;;;;;;;4.55;0.63;;;4.00;93.90;;;;;;2094988;28;20124;-90
2022/02/01 02:48:00;;;;;;;4.25;0.70;;;4.00;93.90;;;;;;2084053;28;20088;-90
2022/02/01 02:49:05;;;;;;;2.50;0.70;;;4.00;93.90;;;;;;2091768;28;20049;-90
2022/02/01 02:50:06;;;;;;;5.05;0.80;;;4.00;93.90;;;;;;2096721;28;20075;-90
2022/02/01 02:51:07;;;;;;;5.07;0.68;;;4.00;93.90;;;;;;2089574;28;20202;-90
2022/02/01 02:52:07;;;;;;;3.92;0.80;;;4.00;93.90;;;;;;2088819;28;20103;-90
2022/02/01 02:53:08;;;;;;;4.05;0.60;;;4.00;93.90;;;;;;2088885;28;20091;-90
2022/02/01 02:54:12;;;;;;;4.38;0.77;;;4.00;93.90;;;;;;2078806;28;20408;-90
2022/02/01 02:55:12;;;;;;;3.03;0.60;;;4.00;93.90;;;;;;2071835;28;20416;-90
2022/02/01 02:56:14;;;;;;;4.15;0.90;;;4.00;93.90;;;;;;2064880;28;20030;-90
2022/02/01 02:57:15;;;;;;;4.38;0.90;;;4.00;93.90;;;;;;2072340;28;20050;-90
2022/02/01 02:58:15;;;;;;;3.35;0.60;;;4.00;93.90;;;;;;2089410;28;20079;-90
2022/02/01 02:59:17;;;;;;;1.55;0.60;;;4.00;93.90;;;;;;2083612;28;20048;-90
2022/02/01 03:00:18;;;;;;;4.40;0.60;;;4.00;93.90;;;;;;2080370;28;20034;-90
2022/02/01 03:01:19;;;;;;;6.13;0.70;;;4.00;93.90;;;;;;2082649;28;20484;-90
2022/02/01 03:02:20;;;;;;;2.35;0.73;;;4.00;94.20;;;;;;2083247;28;20042;-89
2022/02/01 03:03:20;;;;;;;2.72;0.63;;;4.00;93.90;;;;;;2087496;28;20044;-90
2022/02/01 03:04:26;;;;;;;3.65;0.50;;;4.00;93.90;;;;;;2088820;28;20079;-90
2022/02/01 03:05:27;;;;;;;4.00;0.40;;;4.00;94.00;;;;;;2083203;28;20056;-90
2022/02/01 03:06:27;;;;;;;3.08;0.60;;;4.00;93.90;;;;;;2083105;28;20061;-90
2022/02/01 03:07:28;;;;;;;4.55;0.60;;;4.00;93.90;;;;;;2090603;28;20044;-90
2022/02/01 03:08:29;;;;;;;5.07;0.80;;;4.00;93.90;;;;;;2096839;28;20135;-90
2022/02/01 03:09:32;;;;;;;4.20;0.70;;;4.00;93.90;;;;;;2090906;28;20088;-90
2022/02/01 03:10:33;;;;;;;6.03;0.75;;;4.00;93.90;;;;;;2087144;28;20033;-90
2022/02/01 03:11:33;;;;;;;3.85;0.60;;;4.00;94.20;;;;;;2079910;28;20041;-90
2022/02/01 03:12:58;;;;;;;2.97;0.57;;;4.00;93.90;;;;;;2065250;28;20061;-89
2022/02/01 03:13:58;;;;;;;;;;;4.00;93.90;;;;;;2074477;28;20029;-90
2022/02/01 03:15:20;;;;;;;6.03;0.82;;;4.00;93.90;;;;;;2091589;28;19909;-90
2022/02/01 03:19:49;;;;;;;5.63;0.90;;;4.00;93.90;;;;;;2091536;28;20033;-90
2022/02/01 03:20:09;;;;;;;5.10;0.90;;;3.90;93.90;;;;;;2081832;28;20034;-90
2022/02/01 03:21:10;;;;;;;4.63;1.00;;;3.90;93.90;;;;;;2076632;28;20516;-90
2022/02/01 03:22:10;;;;;;;3.95;0.60;;;3.90;93.90;;;;;;2075508;28;20117;-90
2022/02/01 03:23:11;;;;;;;4.10;0.80;;;3.90;93.90;;;;;;2083124;28;20064;-90
2022/02/01 03:24:12;;;;;;;3.88;0.60;;;3.90;93.90;;;;;;2090442;28;20034;-90
2022/02/01 03:25:14;;;;;;;2.10;0.50;;;3.90;93.90;;;;;;2095076;28;20084;-90
2022/02/01 03:26:15;;;;;;;3.60;0.57;;;4.00;94.00;;;;;;2093032;28;20040;-91
2022/02/01 03:27:16;;;;;;;4.15;0.90;;;3.90;94.00;;;;;;2096714;28;20087;-90
2022/02/01 03:28:17;;;;;;;3.88;1.17;;;4.00;94.00;;;;;;2098605;28;20051;-91
2022/02/01 03:29:18;;;;;;;4.60;0.98;;;3.90;94.00;;;;;;2093565;28;20049;-90
2022/02/01 03:30:18;;;;;;;2.53;0.73;;;4.00;94.00;;;;;;2094560;28;20128;-90
2022/02/01 03:31:19;;;;;;;3.63;0.80;;;4.00;94.00;;;;;;2095338;28;20131;-90
2022/02/01 03:32:20;;;;;;;4.30;0.70;;;4.00;94.00;;;;;;2093834;28;20048;-90
2022/02/01 03:33:21;;;;;;;2.97;0.80;;;4.00;94.00;;;;;;2092482;28;20032;-90
2022/02/01 03:34:22;;;;;;;5.18;0.82;;;4.00;94.00;;;;;;2082610;28;20041;-90
2022/02/01 03:35:23;;;;;;;4.00;0.63;;;4.00;94.00;;;;;;2082819;28;20436;-90
2022/02/01 03:36:23;;;;;;;3.70;0.63;;;4.00;94.00;;;;;;2090704;28;20080;-90
2022/02/01 03:37:24;;;;;;;4.40;1.45;;;4.00;94.00;;;;;;2090347;28;20033;-90
2022/02/01 03:38:25;;;;;;;3.22;0.80;;;4.00;94.00;;;;;;2097559;28;20093;-90
2022/02/01 03:39:25;;;;;;;4.07;0.80;;;4.00;94.00;;;;;;2089686;28;20087;-90
2022/02/01 03:40:26;;;;;;;4.65;0.80;;;4.00;94.00;;;;;;2067345;28;20085;-90
2022/02/01 03:41:27;;;;;;;4.05;0.90;;;4.00;94.00;;;;;;2066170;28;20042;-90
2022/02/01 03:42:28;;;;;;;3.08;0.68;;;4.00;94.00;;;;;;2074341;28;20522;-90
2022/02/01 03:43:29;;;;;;;3.45;0.70;;;4.00;94.00;;;;;;2083182;28;20056;-90
2022/02/01 03:44:31;;;;;;;4.50;0.70;;;4.00;94.30;;;;;;2090512;28;20080;-91
2022/02/01 03:45:32;;;;;;;4.75;0.90;;;4.00;94.00;;;;;;2084089;28;20041;-90
2022/02/01 03:46:33;;;;;;;4.72;0.90;;;4.00;94.00;;;;;;2084593;28;20068;-90
2022/02/01 03:47:34;;;;;;;2.83;0.60;;;4.10;94.00;;;;;;2074172;28;20090;-91
2022/02/01 03:48:35;;;;;;;4.57;0.95;;;4.10;94.00;;;;;;2082189;28;20045;-90
2022/02/01 03:49:40;;;;;;;4.40;0.75;;;4.10;94.00;;;;;;2087700;28;20039;-90
2022/02/01 03:50:40;;;;;;;4.30;1.02;;;4.10;94.00;;;;;;2089658;28;20033;-90
2022/02/01 03:51:41;;;;;;;4.60;0.80;;;4.10;94.00;;;;;;2080920;28;20049;-90
2022/02/01 03:52:42;;;;;;;5.47;0.80;;;4.10;94.00;;;;;;2074118;28;20476;-91
2022/02/01 03:53:42;;;;;;;4.72;1.13;;;4.10;94.00;;;;;;2073980;28;20096;-90
2022/02/01 03:54:43;;;;;;;5.15;0.80;;;4.10;94.00;;;;;;2091198;28;20037;-91
2022/02/01 03:55:44;;;;;;;5.65;1.08;;;4.10;94.00;;;;;;2089762;28;20037;-90
2022/02/01 03:56:44;;;;;;;4.10;0.85;;;4.10;94.00;;;;;;2078723;28;20149;-90
2022/02/01 03:57:45;;;;;;;3.55;0.60;;;4.10;94.00;;;;;;2082134;28;20041;-90
2022/02/01 03:58:45;;;;;;;4.95;0.98;;;4.10;94.00;;;;;;2075977;28;20436;-90
2022/02/01 03:59:46;;;;;;;4.95;0.98;;;4.10;94.00;;;;;;2082108;28;20077;-90
2022/02/01 04:00:47;;;;;;;5.80;0.88;;;4.10;94.00;;;;;;2096760;28;20032;-90
2022/02/01 04:01:47;;;;;;;3.72;0.68;;;4.10;94.00;;;;;;2089717;28;20128;-90
2022/02/01 04:02:48;;;;;;;2.05;0.70;;;4.10;94.00;;;;;;2090881;28;20439;-90
2022/02/01 04:03:49;;;;;;;3.97;0.80;;;4.20;94.00;;;;;;2093121;28;20033;-91
2022/02/01 04:04:53;;;;;;;4.55;0.70;;;4.20;94.00;;;;;;2093456;28;20470;-90
2022/02/01 04:05:53;;;;;;;4.10;0.80;;;4.10;94.00;;;;;;2092471;28;20549;-90
2022/02/01 04:06:55;;;;;;;4.63;0.70;;;4.20;94.00;;;;;;2081951;28;20163;-90
2022/02/01 04:07:55;;;;;;;3.92;0.80;;;4.20;94.00;;;;;;2082231;28;20030;-90
2022/02/01 04:08:56;;;;;;;1.98;0.50;;;4.10;94.00;;;;;;2093957;28;20087;-90
2022/02/01 04:09:57;;;;;;;3.78;0.80;;;4.10;94.00;;;;;;2090431;28;20036;-90
2022/02/01 04:10:57;;;;;;;4.15;0.60;;;4.20;94.00;;;;;;2089576;28;20519;-90
2022/02/01 04:12:00;;;;;;;5.05;0.75;;;4.10;94.00;;;;;;2083826;28;20432;-90
2022/02/01 04:13:03;;;;;;;5.00;0.80;;;4.20;94.10;;;;;;2088277;28;20400;-90
2022/02/01 04:14:04;;;;;;;3.28;0.75;;;4.20;94.10;;;;;;2089487;28;20041;-90
2022/02/01 04:15:06;;;;;;;3.95;0.73;;;4.20;94.10;;;;;;2081459;28;20228;-90
2022/02/01 04:16:07;;;;;;;3.08;0.50;;;4.20;94.10;;;;;;2083043;28;20036;-90
2022/02/01 04:17:12;;;;;;;3.50;0.52;;;4.20;94.10;;;;;;2088282;28;20083;-90
2022/02/01 04:18:13;;;;;;;3.55;0.57;;;4.10;94.10;;;;;;2090538;28;20390;-90
2022/02/01 04:19:13;;;;;;;3.42;0.60;;;4.20;94.10;;;;;;2088044;28;20095;-90
2022/02/01 04:20:15;;;;;;;4.00;0.63;;;4.10;94.10;;;;;;2096998;28;20399;-90
2022/02/01 04:21:15;;;;;;;3.50;0.60;;;4.20;94.10;;;;;;2093405;28;20040;-90
2022/02/01 04:22:17;;;;;;;6.65;1.02;;;4.10;94.10;;;;;;2093105;28;20050;-90
2022/02/01 04:23:18;;;;;;;3.45;0.60;;;4.10;94.10;;;;;;2090310;28;20087;-90
2022/02/01 04:24:18;;;;;;;3.60;0.70;;;4.20;94.10;;;;;;2081770;28;20481;-90
2022/02/01 04:25:19;;;;;;;4.22;0.68;;;4.20;94.10;;;;;;2082212;28;20080;-90
2022/02/01 04:26:19;;;;;;;5.95;0.80;;;4.10;94.10;;;;;;2080494;28;20087;-90
2022/02/01 04:27:32;;;;;;;6.50;0.95;;;4.10;94.10;;;;;;2089492;28;20049;-90
2022/02/01 04:28:33;;;;;;;4.38;0.80;;;4.20;94.20;;;;;;2088650;28;20426;-90
2022/02/01 04:29:37;;;;;;;3.90;0.85;;;4.20;94.10;;;;;;2082038;28;20034;-90
2022/02/01 04:30:38;;;;;;;2.80;0.60;;;4.20;94.10;;;;;;2090712;28;20029;-90
2022/02/01 04:31:38;;;;;;;3.95;0.80;;;4.20;94.10;;;;;;2098457;28;20649;-90
2022/02/01 04:32:44;;;;;;;5.35;0.70;;;4.10;94.10;;;;;;2089500;28;20038;-90
2022/02/01 04:33:45;;;;;;;5.78;0.68;;;4.10;94.10;;;;;;2098871;28;20315;-90
2022/02/01 04:34:50;;;;;;;2.40;0.50;;;4.10;94.10;;;;;;2106800;28;20036;-89
2022/02/01 04:35:51;;;;;;;7.22;0.85;;;4.10;94.10;;;;;;2078769;28;20050;-90
2022/02/01 04:36:51;;;;;;;4.93;0.80;;;4.10;94.10;;;;;;2075352;28;20045;-91
2022/02/01 04:37:54;;;;;;;2.85;0.63;;;4.10;94.10;;;;;;2084576;28;20473;-90
2022/02/01 04:38:57;;;;;;;6.22;0.80;;;4.10;94.10;;;;;;2105983;28;20413;-90
2022/02/01 04:39:58;;;;;;;4.18;0.55;;;4.10;94.10;;;;;;2082079;28;20026;-90
2022/02/01 04:40:59;;;;;;;2.75;0.70;;;4.10;94.10;;;;;;2081965;28;20033;-90
2022/02/01 04:42:00;;;;;;;3.58;0.50;;;4.10;94.10;;;;;;2080334;28;20046;-90
2022/02/01 04:43:03;;;;;;;5.38;0.90;;;4.10;94.10;;;;;;2098171;28;20048;-91
2022/02/01 04:44:04;;;;;;;4.35;1.05;;;4.10;94.20;;;;;;2106218;28;20520;-90
2022/02/01 04:45:07;;;;;;;6.00;0.85;;;4.10;94.10;;;;;;2090248;28;20048;-90
2022/02/01 04:46:09;;;;;;;4.57;0.88;;;4.10;94.10;;;;;;2085137;28;20040;-90
2022/02/01 04:47:10;;;;;;;3.50;0.70;;;4.10;94.10;;;;;;2090841;28;20099;-90
2022/02/01 04:48:11;;;;;;;4.88;0.90;;;4.10;94.10;;;;;;2100950;28;20037;-90
2022/02/01 04:49:12;;;;;;;4.65;0.90;;;4.10;94.10;;;;;;2106931;28;20044;-91
2022/02/01 04:50:16;;;;;;;4.57;0.90;;;4.10;94.10;;;;;;2090536;28;20033;-90
2022/02/01 04:51:19;;;;;;;3.33;0.88;;;4.10;94.20;;;;;;2094507;28;20032;-90
2022/02/01 04:52:19;;;;;;;3.85;0.70;;;4.10;94.20;;;;;;2089290;28;20068;-91
2022/02/01 04:53:20;;;;;;;5.25;0.95;;;4.10;94.20;;;;;;2073954;28;20449;-90
2022/02/01 04:54:21;;;;;;;2.85;0.60;;;4.10;94.20;;;;;;2075299;28;20121;-90
2022/02/01 04:55:24;;;;;;;4.25;0.80;;;4.10;94.20;;;;;;2086690;28;20068;-90
2022/02/01 04:56:25;;;;;;;2.95;0.70;;;4.10;94.20;;;;;;2089592;28;20170;-91
2022/02/01 04:57:25;;;;;;;5.32;0.77;;;4.10;94.20;;;;;;2099028;28;20044;-90
2022/02/01 04:58:26;;;;;;;2.25;0.70;;;4.10;94.20;;;;;;2098577;28;20040;-91
2022/02/01 04:59:27;;;;;;;3.75;0.80;;;4.10;94.20;;;;;;2088713;28;20036;-90
2022/02/01 05:00:30;;;;;;;2.63;0.70;;;4.10;94.20;;;;;;2088083;28;20124;-90
2022/02/01 05:01:37;;;;;;;4.32;0.82;;;4.10;94.20;;;;;;2098143;28;20517;-90
2022/02/01 05:02:38;;;;;;;3.40;0.98;;;4.00;94.20;;;;;;2089643;28;20573;-90
2022/02/01 05:03:39;;;;;;;6.05;0.90;;;4.10;94.20;;;;;;2087529;28;20126;-90
2022/02/01 05:04:39;;;;;;;5.07;0.90;;;4.00;94.20;;;;;;2081574;28;20091;-90
2022/02/01 05:05:40;;;;;;;4.72;1.25;;;4.10;94.20;;;;;;2100750;28;20749;-90
2022/02/01 05:06:41;;;;;;;2.88;0.85;;;4.10;94.20;;;;;;2074854;28;20082;-90
2022/02/01 05:07:41;;;;;;;3.88;0.90;;;4.00;94.20;;;;;;2057537;28;20409;-90
2022/02/01 05:08:43;;;;;;;4.68;0.80;;;4.00;94.40;;;;;;2081645;28;20119;-91
2022/02/01 05:09:44;;;;;;;6.00;1.08;;;4.00;94.20;;;;;;2080269;28;20126;-90
2022/02/01 05:10:45;;;;;;;3.85;0.80;;;4.00;94.20;;;;;;2089471;28;20033;-90
2022/02/01 05:11:45;;;;;;;4.88;0.90;;;4.00;94.20;;;;;;2076310;28;20030;-90
2022/02/01 05:12:46;;;;;;;6.53;1.00;;;4.00;94.20;;;;;;2081848;28;20575;-90
2022/02/01 05:14:50;;;;;;;7.15;0.82;;;4.00;94.20;;;;;;2089955;28;20507;-90
2022/02/01 05:15:59;;;;;;;5.32;0.85;;;4.00;94.20;;;;;;2095332;28;20051;-90
2022/02/01 05:17:02;;;;;;;4.78;0.70;;;4.00;94.20;;;;;;2089807;28;20037;-90
2022/02/01 05:18:03;;;;;;;4.47;0.80;;;4.00;94.20;;;;;;2082661;28;20029;-91
2022/02/01 05:19:05;;;;;;;2.20;0.70;;;4.00;94.20;;;;;;2089353;28;20033;-90
2022/02/01 05:21:27;;;;;;;4.32;0.80;;;4.00;94.30;;;;;;2087049;28;20083;-90
2022/02/01 05:22:31;;;;;;;3.40;1.30;;;4.00;94.30;;;;;;2081635;28;20053;-90
2022/02/01 05:23:32;;;;;;;4.80;1.05;;;4.00;94.30;;;;;;2079782;28;20034;-90
2022/02/01 05:24:36;;;;;;;5.25;0.93;;;4.00;94.30;;;;;;2098585;28;20092;-90
2022/02/01 05:25:37;;;;;;;4.00;1.00;;;3.90;94.20;;;;;;2098608;28;20036;-90
2022/02/01 05:26:38;;;;;;;7.15;0.88;;;3.90;94.20;;;;;;2087835;28;20025;-90
2022/02/01 05:27:40;;;;;;;5.18;0.80;;;3.90;94.20;;;;;;2088732;28;20096;-90
2022/02/01 05:28:41;;;;;;;4.80;1.00;;;4.00;94.30;;;;;;2080562;28;20147;-90
2022/02/01 05:29:42;;;;;;;6.00;0.95;;;3.90;94.30;;;;;;2082319;28;20412;-90
2022/02/01 05:30:43;;;;;;;3.13;0.77;;;3.90;94.30;;;;;;2089835;28;20068;-90
2022/02/01 05:31:44;;;;;;;3.67;0.80;;;3.90;94.30;;;;;;2090263;28;20029;-90
2022/02/01 05:32:45;;;;;;;4.18;0.82;;;3.90;94.30;;;;;;2090312;28;20107;-90
2022/02/01 05:33:45;;;;;;;3.17;0.80;;;3.90;94.30;;;;;;2093379;28;20040;-90
2022/02/01 05:34:46;;;;;;;3.17;0.70;;;3.90;94.30;;;;;;2094912;28;20131;-90
2022/02/01 05:35:47;;;;;;;6.47;1.40;;;3.90;94.30;;;;;;2089906;28;20033;-90
2022/02/01 05:36:48;;;;;;;3.17;0.80;;;3.90;94.30;;;;;;2085845;28;20041;-91
2022/02/01 05:37:49;;;;;;;6.25;0.95;;;3.90;94.30;;;;;;2081575;28;20060;-90
2022/02/01 05:38:52;;;;;;;4.95;1.30;;;3.90;94.40;;;;;;2085695;28;20030;-91
2022/02/01 05:39:53;;;;;;;6.70;1.55;;;3.90;94.40;;;;;;2100641;28;20039;-90
2022/02/01 05:40:54;;;;;;;6.53;1.10;;;3.90;94.40;;;;;;2089922;28;20132;-90
2022/02/01 05:41:57;;;;;;;5.60;1.13;;;3.80;94.40;;;;;;2082179;28;20022;-90
2022/02/01 05:43:02;;;;;;;6.13;1.00;;;3.80;94.40;;;;;;2088290;28;20483;-89
2022/02/01 05:44:02;;;;;;;3.72;0.90;;;3.80;94.40;;;;;;2089772;28;20041;-90
2022/02/01 05:45:03;;;;;;;4.00;0.98;;;3.80;94.40;;;;;;2098299;28;20036;-90
2022/02/01 05:46:04;;;;;;;8.10;1.23;;;3.80;94.40;;;;;;2090300;28;20097;-91
2022/02/01 05:47:06;;;;;;;4.35;1.10;;;3.90;94.40;;;;;;2090049;28;20037;-90
2022/02/01 05:48:10;;;;;;;5.13;1.10;;;3.80;94.40;;;;;;2081426;28;20416;-90
2022/02/01 05:49:11;;;;;;;7.15;1.77;;;3.90;94.40;;;;;;2093817;28;20040;-92
2022/02/01 05:50:11;;;;;;;4.70;0.98;;;3.80;94.40;;;;;;2096976;28;20060;-90
2022/02/01 05:51:12;;;;;;;5.20;1.17;;;3.90;94.40;;;;;;2097854;28;20041;-91
2022/02/01 05:52:13;;;;;;;3.45;0.93;;;3.90;94.40;;;;;;2092548;28;20037;-90
2022/02/01 05:53:13;;;;;;;6.05;1.50;;;3.90;94.40;;;;;;2088193;28;20040;-91
2022/02/01 05:54:14;;;;;;;5.95;1.27;;;3.90;94.40;;;;;;2080438;28;20120;-90
2022/02/01 05:55:15;;;;;;;6.55;1.20;;;3.90;94.40;;;;;;2096600;28;20044;-90
2022/02/01 05:56:16;;;;;;;5.18;1.38;;;3.90;94.40;;;;;;2097700;28;20047;-90
2022/02/01 05:57:17;;;;;;;4.82;1.20;;;3.90;94.40;;;;;;2089508;28;20045;-90
2022/02/01 05:58:19;;;;;;;4.72;1.08;;;4.00;94.40;;;;;;2096787;28;20029;-90
2022/02/01 05:59:19;;;;;;;6.78;1.35;;;4.00;94.40;;;;;;2081105;28;20084;-88
2022/02/01 06:00:21;;;;;;;3.78;1.02;;;4.00;94.40;;;;;;2070641;28;20090;-90
2022/02/01 06:01:21;;;;;;;6.40;1.25;;;4.00;94.40;;;;;;2088250;28;20052;-91
2022/02/01 06:02:22;;;;;;;5.65;1.05;;;4.00;94.70;;;;;;2087768;28;20072;-91
2022/02/01 06:03:23;;;;;;;3.90;1.02;;;4.00;94.40;;;;;;2065123;28;20169;-91
2022/02/01 06:04:23;;;;;;;6.15;1.00;;;4.00;94.40;;;;;;2080846;28;20045;-90
2022/02/01 06:05:24;;;;;;;7.03;1.48;;;4.00;94.40;;;;;;2089117;28;20064;-89
2022/02/01 06:06:25;;;;;;;7.28;1.20;;;4.00;94.30;;;;;;2073277;28;20504;-90
2022/02/01 06:07:25;;;;;;;4.18;1.00;;;4.10;94.40;;;;;;2081162;28;20041;-90
2022/02/01 06:08:26;;;;;;;4.10;0.98;;;4.10;94.40;;;;;;2095078;28;20049;-90
2022/02/01 06:09:27;;;;;;;6.20;1.40;;;4.10;94.40;;;;;;2087776;28;20025;-90
2022/02/01 06:10:28;;;;;;;5.95;1.15;;;4.10;94.30;;;;;;2086632;28;20045;-90
2022/02/01 06:11:29;;;;;;;5.45;1.13;;;4.10;94.30;;;;;;2083929;28;20034;-91
2022/02/01 06:12:45;;;;;;;4.55;1.00;;;4.10;94.30;;;;;;2086900;28;20579;-90
2022/02/01 06:13:46;;;;;;;5.10;1.15;;;4.10;94.30;;;;;;2087519;28;20036;-90
2022/02/01 06:14:47;;;;;;;3.85;0.90;;;4.10;94.30;;;;;;2088867;28;20144;-91
2022/02/01 06:15:47;;;;;;;5.40;1.33;;;4.10;94.30;;;;;;2077866;28;20033;-90
2022/02/01 06:16:48;;;;;;;4.82;1.40;;;4.10;94.30;;;;;;2083278;28;20028;-89
2022/02/01 06:17:49;;;;;;;5.85;1.00;;;4.20;94.30;;;;;;2095342;28;20510;-90
2022/02/01 06:18:49;;;;;;;6.05;1.35;;;4.20;94.30;;;;;;2080878;28;20025;-90
2022/02/01 06:19:50;;;;;;;3.85;1.15;;;4.20;94.30;;;;;;2084906;28;20092;-90
2022/02/01 06:20:50;;;;;;;5.90;0.98;;;4.20;94.30;;;;;;2097778;28;20561;-90
2022/02/01 06:21:51;;;;;;;5.00;1.00;;;4.20;94.30;;;;;;2098190;28;20406;-90
2022/02/01 06:22:52;;;;;;;5.03;1.10;;;4.20;94.30;;;;;;2085393;28;20041;-90
2022/02/01 06:23:52;;;;;;;4.95;1.25;;;4.20;94.30;;;;;;2089963;28;20064;-89
2022/02/01 06:24:53;;;;;;;5.95;1.67;;;4.20;94.30;;;;;;2091252;28;20043;-91
2022/02/01 06:25:57;;;;;;;3.90;1.13;;;4.20;94.30;;;;;;2081203;28;20037;-91
2022/02/01 06:26:58;;;;;;;5.43;1.15;;;4.20;94.30;;;;;;2090487;28;20475;-90
2022/02/01 06:27:59;;;;;;;6.35;1.25;;;4.20;94.30;;;;;;2094903;28;20032;-91
2022/02/01 06:29:00;;;;;;;4.97;1.10;;;4.30;94.30;;;;;;2079422;28;20547;-91
2022/02/01 06:30:01;;;;;;;4.22;0.95;;;4.20;94.30;;;;;;2081485;28;20132;-90
2022/02/01 06:31:02;;;;;;;4.38;1.10;;;4.30;94.30;;;;;;2073423;28;20042;-91
2022/02/01 06:32:03;;;;;;;8.05;1.50;;;4.30;94.30;;;;;;2078728;28;20517;-90
2022/02/01 06:33:04;;;;;;;4.72;1.15;;;4.30;94.30;;;;;;2072416;28;20164;-90
2022/02/01 06:34:04;;;;;;;5.93;1.10;;;4.20;94.30;;;;;;2072878;28;20034;-90
2022/02/01 06:35:07;;;;;;;4.65;1.20;;;4.30;94.30;;;;;;2081485;28;20404;-91
2022/02/01 06:36:07;;;;;;;4.60;1.00;;;4.30;94.30;;;;;;2085873;28;20495;-91